Northleach, United Kingdom
Current Conditions -  °F | °C
As of 4:58 AM on Sunday 26 Oct 2014 (Local Time) from EGVA Reporting Station
Overcast Overcast  
Wind Chill: 54°   Ceiling: 3400
Heat Index: 54°   Visibility: 6mi
Dew Point: 46°   Wind: 16mph
Humidity: 75%   Direction: 240°WSW
Pressure: 30.1"   Gusts: NA
Location:  51.83°N, 1.84°W
Report Text: EGVA 260358Z AUTO 24014KT 9999 OVC034 12/08 A3010 RMK AO2 SLP196 P0857 T01210077
Loading
Personal Weather Stations






























Interactive Weather Map
Tropical Storm Tracking
New forecast layout! Learn more

10-Day Weather Forecast

Advertisements
Track Severe Weather on mobile